Santa Rosa, CA (95401)

11:47 PM PDT on August 29, 2014 (GMT -0700)
Sierra Meadows | Change Station
CLOSE
Current Station
Personal Weather Station
Location: Santa Rosa, CA
Elevation: 105 ft
Nearby Weather Stations

Elev 105 ft 38.44 °N, 122.76 °W | Updated 7 minutes ago

Partly Cloudy
Partly Cloudy
59.5 °F
Feels Like 59.5 °F
N
0.0
Wind Variable Wind from South

Today
High -- | Low -- °F
--% Chance of Precip.
Yesterday
High -- | Low -- °F
Precip. -- in
6:37 AM 7:45 PM
Waxing Crescent, 19% visible
Pressure 29.87 in
Visibility 10.0 miles
Clouds Clear
Dew Point 32 °F
Humidity 35%
Rainfall 0.00 in
Snow Depth Not available.
UV 0 out of 12
Pollen 7.40 out of 12
Air Quality Not available.
Flu Activity Not available.
METAR KSTS 300553Z AUTO 14003KT 10SM CLR 17/13 A2989 RMK AO2 SLP114 T01670133 10261 20167 51008

More Conditions Fewer Conditions

Pressure 29.87 in
Visibility 10.0 miles
Clouds Clear
Dew Point 32 °F
Humidity 35%
Rainfall 0.00 in
Snow Depth Not available.
UV 0 out of 12
Pollen 7.40 out of 12
Air Quality Not available.
Flu Activity Not available.
METAR KSTS 300553Z AUTO 14003KT 10SM CLR 17/13 A2989 RMK AO2 SLP114 T01670133 10261 20167 51008

More Conditions Fewer Conditions

10-Day Weather Forecast

Almanac

Astronomy

Aug. 29, 2014 Rise Set
Actual Time 6:37 AM PDT 7:45 PM PDT
Civil Twilight 6:10 AM PDT 8:12 PM PDT
Nautical Twilight 5:38 AM PDT 8:44 PM PDT
Astronomical Twilight 5:04 AM PDT 9:18 PM PDT
Moon 10:29 AM PDT (8/29) 9:49 PM PDT (8/29)
Length of Visible Light 14h 01m
Length of Day
13h 07m
Tomorrow will be 2m 21s shorter.
Waxing Crescent, 19% of the Moon is Illuminated
Aug 30
Waxing Crescent
Sep 2
First Quarter
Sep 8
Full
Sep 15
Last Quarter
Sep 24
New

Community

WunderPhotos

Upload Photos

1,748,462 photos uploaded!

Nearby

Air Quality

  Air Quality AQ Index Pollutant
Friday Good
PM2.5
Saturday Good
PM2.5
Sunday Good
PM2.5
Monday Good
PM2.5
Tuesday Good
PM2.5
Wednesday Good
PM2.5

Snow Depth

Station Depth Elevation
CSS Lab 2 in 6900 ft
Rubicon #2 0 in 7500 ft
Echo Peak 1 in 7800 ft
Tahoe City Cross 0 in 6750 ft
Fallen Leaf 0 in 6300 ft

Earthquake Activity

City Distance Mag. Time & Date
Ridgemark, California 145 miles 3.4 4:32 PM PDT
2014-08-29
The Geysers, California 25 miles 2.7 2:53 PM PDT
2014-08-29
Ridgemark, California 145 miles 3.0 2:44 PM PDT
2014-08-29
Napa, California 26 miles 2.6 11:57 AM PDT
2014-08-27
Minimum magnitude displayed is 2.5.

Coastal Water Temperatures

Place Temperature
Point Reyes, CA 62.1 °F
Arena Cove, CA 55.9 °F
San Francisco, CA 66.0 °F
Richmond, CA 66.9 °F

Nearby Weather Stations